createdAt,value
2022-08-21T00:00:10.980Z,6.80
2022-08-21T00:04:12.671Z,8.10
2022-08-21T00:08:17.051Z,7.60
2022-08-21T00:12:18.349Z,7.53
2022-08-21T00:16:19.584Z,8.07
2022-08-21T00:20:22.053Z,8.40
2022-08-21T00:24:24.176Z,9.37
2022-08-21T00:28:25.490Z,9.97
2022-08-21T00:32:28.096Z,8.43
2022-08-21T00:36:29.930Z,8.00
2022-08-21T00:40:34.843Z,8.43
2022-08-21T00:44:36.165Z,8.10
2022-08-21T00:48:37.275Z,7.30
2022-08-21T00:52:40.793Z,8.77
2022-08-21T00:56:42.108Z,8.50
2022-08-21T01:00:48.518Z,8.50
2022-08-21T01:04:49.906Z,8.30
2022-08-21T01:08:51.124Z,8.23
2022-08-21T01:12:56.516Z,7.67
2022-08-21T01:16:59.373Z,8.00
2022-08-21T01:21:09.796Z,8.33
2022-08-21T01:25:15.532Z,7.67
2022-08-21T01:29:37.462Z,7.47
2022-08-21T01:33:38.791Z,7.27
2022-08-21T01:37:40.275Z,7.80
2022-08-21T01:41:41.603Z,8.30
2022-08-21T01:45:43.014Z,8.70
2022-08-21T01:49:45.133Z,7.70
2022-08-21T01:53:46.329Z,8.87
2022-08-21T01:57:48.363Z,8.30
2022-08-21T02:01:50.085Z,8.70
2022-08-21T02:05:51.208Z,8.57
2022-08-21T02:09:52.326Z,8.10
2022-08-21T02:13:55.035Z,8.53
2022-08-21T02:17:59.193Z,8.20
2022-08-21T02:22:00.484Z,9.33
2022-08-21T02:26:04.498Z,7.37
2022-08-21T02:30:07.156Z,8.13
2022-08-21T02:34:09.037Z,7.00
2022-08-21T02:38:13.530Z,7.57
2022-08-21T02:42:14.944Z,7.60
2022-08-21T02:46:18.672Z,7.60
2022-08-21T02:50:26.640Z,8.17
2022-08-21T02:54:28.461Z,7.80
2022-08-21T02:58:33.481Z,8.00
2022-08-21T03:02:35.204Z,7.93
2022-08-21T03:06:36.942Z,7.33
2022-08-21T03:10:40.178Z,8.20
2022-08-21T03:14:41.478Z,8.47
2022-08-21T03:18:42.708Z,7.83
2022-08-21T03:22:48.548Z,8.17
2022-08-21T03:26:46.845Z,8.60
2022-08-21T03:30:50.935Z,9.00
2022-08-21T03:34:52.081Z,8.47
2022-08-21T03:38:53.402Z,7.73
2022-08-21T03:42:54.654Z,7.83
2022-08-21T03:46:56.921Z,9.53
2022-08-21T03:50:58.550Z,9.00
2022-08-21T03:54:59.781Z,9.30
2022-08-21T03:59:02.894Z,8.27
2022-08-21T04:03:04.518Z,7.40
2022-08-21T04:07:05.687Z,8.37
2022-08-21T04:11:07.708Z,7.80
2022-08-21T04:15:09.448Z,9.70
2022-08-21T04:19:11.755Z,8.10
2022-08-21T04:23:12.941Z,7.23
2022-08-21T04:27:15.984Z,7.73
2022-08-21T04:31:17.088Z,8.20
2022-08-21T04:35:21.420Z,7.90
2022-08-21T04:39:22.626Z,7.87
2022-08-21T04:43:25.956Z,9.00
2022-08-21T04:51:17.577Z,8.53
2022-08-21T04:55:20.353Z,7.30
2022-08-21T04:59:25.276Z,8.20
2022-08-21T05:03:26.805Z,6.97
2022-08-21T05:07:42.400Z,8.73
2022-08-21T05:11:33.555Z,9.10
2022-08-21T05:15:34.792Z,7.93
2022-08-21T05:19:36.602Z,8.80
2022-08-21T05:23:37.749Z,7.93
2022-08-21T05:27:39.336Z,7.20
2022-08-21T05:31:40.587Z,7.30
2022-08-21T05:35:41.709Z,7.93
2022-08-21T05:40:05.262Z,6.70
2022-08-21T05:43:46.169Z,6.90
2022-08-21T05:47:47.399Z,7.30
2022-08-21T05:51:48.627Z,7.10
2022-08-21T05:55:51.547Z,6.70
2022-08-21T05:59:52.977Z,7.97
2022-08-21T06:03:54.112Z,6.93
2022-08-21T06:07:57.124Z,6.87
2022-08-21T06:11:58.263Z,6.70
2022-08-21T06:16:06.595Z,6.80
2022-08-21T06:20:08.427Z,7.37
2022-08-21T06:24:09.637Z,6.10
2022-08-21T06:28:11.479Z,6.57
2022-08-21T06:32:13.391Z,6.20
2022-08-21T06:36:17.523Z,7.43
2022-08-21T06:40:18.804Z,6.57
2022-08-21T06:44:20.660Z,6.33
2022-08-21T06:48:21.894Z,5.70
2022-08-21T06:52:23.143Z,6.40
2022-08-21T06:56:24.398Z,6.40
2022-08-21T07:00:26.340Z,6.33
2022-08-21T07:04:27.557Z,6.80
2022-08-21T07:08:29.404Z,8.70
2022-08-21T07:12:31.611Z,7.93
2022-08-21T07:16:32.845Z,8.03
2022-08-21T07:20:34.470Z,7.50
2022-08-21T07:24:35.708Z,9.40
2022-08-21T07:28:36.910Z,8.97
2022-08-21T07:32:38.248Z,7.77
2022-08-21T07:36:39.458Z,8.20
2022-08-21T07:40:41.192Z,7.70
2022-08-21T07:44:42.426Z,7.67
2022-08-21T07:48:43.572Z,7.60
2022-08-21T07:52:45.098Z,6.37
2022-08-21T07:56:46.203Z,7.80
2022-08-21T08:00:47.330Z,6.80
2022-08-21T08:04:51.066Z,7.83
2022-08-21T08:08:51.474Z,7.90
2022-08-21T08:12:54.721Z,7.60
2022-08-21T08:16:55.960Z,6.87
2022-08-21T08:20:57.183Z,7.07
2022-08-21T08:25:00.026Z,7.70
2022-08-21T08:29:01.232Z,7.30
2022-08-21T08:33:02.468Z,7.07
2022-08-21T08:37:05.200Z,6.20
2022-08-21T08:41:19.226Z,6.83
2022-08-21T08:45:24.479Z,7.40
2022-08-21T08:49:52.420Z,7.90
2022-08-21T08:54:03.158Z,7.30
2022-08-21T08:58:04.787Z,5.87
2022-08-21T09:02:06.314Z,5.37
2022-08-21T09:06:29.515Z,5.73
2022-08-21T09:10:37.597Z,6.37
2022-08-21T09:14:45.311Z,5.80
2022-08-21T09:18:56.044Z,7.00
2022-08-21T09:23:04.464Z,6.17
2022-08-21T09:27:12.671Z,6.60
2022-08-21T09:31:36.622Z,5.67
2022-08-21T09:35:50.900Z,5.30
2022-08-21T09:39:52.199Z,5.47
2022-08-21T09:43:54.502Z,5.83
2022-08-21T09:47:55.837Z,5.00
2022-08-21T09:51:59.263Z,8.60
2022-08-21T09:56:22.079Z,7.90
2022-08-21T10:00:30.196Z,7.87
2022-08-21T10:04:34.957Z,6.77
2022-08-21T10:08:38.759Z,4.70
2022-08-21T10:13:00.114Z,5.57
2022-08-21T10:17:16.840Z,5.50
2022-08-21T10:21:33.424Z,4.80
2022-08-21T10:25:50.430Z,5.70
2022-08-21T10:30:05.958Z,4.93
2022-08-21T10:34:29.090Z,5.13
2022-08-21T10:38:55.294Z,5.00
2022-08-21T10:43:21.456Z,4.70
2022-08-21T10:47:26.400Z,5.40
2022-08-21T10:51:37.737Z,4.30
2022-08-21T10:55:49.048Z,4.40
2022-08-21T10:59:56.626Z,5.60
2022-08-21T11:04:24.368Z,5.23
2022-08-21T11:08:34.170Z,5.20
2022-08-21T11:12:47.732Z,5.00
2022-08-21T11:16:57.073Z,4.30
2022-08-21T11:21:23.454Z,4.20
2022-08-21T11:25:33.755Z,4.80
2022-08-21T11:29:40.458Z,4.77
2022-08-21T11:34:07.009Z,4.23
2022-08-21T11:38:35.098Z,5.03
2022-08-21T11:42:59.135Z,4.67
2022-08-21T11:47:24.929Z,5.30
2022-08-21T11:51:29.988Z,5.10
2022-08-21T11:55:41.329Z,4.30
2022-08-21T11:59:49.634Z,4.70
2022-08-21T12:04:00.529Z,4.47
2022-08-21T12:08:11.031Z,5.00
2022-08-21T12:12:24.959Z,4.50
2022-08-21T12:16:34.918Z,4.43
2022-08-21T12:20:50.454Z,4.23
2022-08-21T12:24:50.041Z,4.50
2022-08-21T12:28:51.865Z,4.50
2022-08-21T12:32:59.966Z,14.40
2022-08-21T12:37:05.513Z,4.97
2022-08-21T12:41:16.146Z,5.27
2022-08-21T12:45:23.101Z,4.60
2022-08-21T12:49:32.012Z,4.00
2022-08-21T12:53:54.323Z,4.20
2022-08-21T12:57:55.748Z,4.00
2022-08-21T13:02:00.216Z,4.63
2022-08-21T13:06:04.199Z,4.30
2022-08-21T13:10:15.098Z,4.97
2022-08-21T13:14:31.989Z,4.37
2022-08-21T13:18:35.418Z,5.60
2022-08-21T13:22:44.312Z,4.83
2022-08-21T13:26:46.931Z,4.83
2022-08-21T13:30:51.263Z,4.43
2022-08-21T13:34:54.118Z,4.60
2022-08-21T13:38:55.534Z,4.40
2022-08-21T13:42:57.494Z,4.67
2022-08-21T13:47:02.387Z,4.83
2022-08-21T13:51:04.639Z,3.37
2022-08-21T13:55:12.906Z,3.53
2022-08-21T13:59:26.106Z,3.97
2022-08-21T14:03:45.787Z,3.93
2022-08-21T14:07:49.395Z,4.00
2022-08-21T14:11:50.723Z,3.87
2022-08-21T14:15:58.655Z,3.83
2022-08-21T14:20:00.829Z,4.07
2022-08-21T14:24:05.122Z,4.20
2022-08-21T14:28:27.121Z,4.27
2022-08-21T14:32:31.551Z,3.97
2022-08-21T14:36:34.077Z,4.27
2022-08-21T14:40:35.341Z,3.33
2022-08-21T14:44:36.764Z,3.30
2022-08-21T14:48:37.989Z,4.13
2022-08-21T14:52:40.730Z,4.37
2022-08-21T14:56:41.945Z,3.80
2022-08-21T15:00:43.080Z,4.20
2022-08-21T15:04:44.275Z,3.97
2022-08-21T15:08:45.516Z,3.90
2022-08-21T15:12:46.724Z,4.03
2022-08-21T15:16:49.260Z,4.20
2022-08-21T15:20:50.981Z,3.93
2022-08-21T15:24:52.183Z,4.00
2022-08-21T15:28:53.524Z,4.20
2022-08-21T15:32:54.809Z,4.23
2022-08-21T15:36:57.999Z,3.73
2022-08-21T15:40:59.206Z,4.73
2022-08-21T15:45:01.350Z,3.80
2022-08-21T15:49:02.919Z,4.27
2022-08-21T15:53:04.104Z,4.33
2022-08-21T15:57:05.530Z,3.40
2022-08-21T16:01:06.844Z,3.87
2022-08-21T16:05:10.522Z,3.80
2022-08-21T16:09:13.342Z,3.80
2022-08-21T16:13:18.749Z,3.93
2022-08-21T16:17:23.059Z,3.30
2022-08-21T16:21:24.287Z,22.67
2022-08-21T16:25:25.951Z,5.67
2022-08-21T16:29:32.436Z,4.10
2022-08-21T16:33:39.354Z,4.30
2022-08-21T16:37:42.929Z,3.50
2022-08-21T16:41:44.689Z,4.37
2022-08-21T16:45:45.998Z,3.83
2022-08-21T16:49:48.059Z,4.07
2022-08-21T16:53:49.513Z,3.60
2022-08-21T16:57:50.862Z,4.40
2022-08-21T17:01:53.998Z,3.70
2022-08-21T17:05:55.129Z,3.90
2022-08-21T17:09:56.354Z,4.10
2022-08-21T17:14:00.271Z,4.17
2022-08-21T17:18:05.046Z,4.00
2022-08-21T17:22:06.955Z,3.80
2022-08-21T17:26:08.405Z,3.80
2022-08-21T17:30:13.039Z,3.97
2022-08-21T17:34:14.969Z,3.60
2022-08-21T17:38:16.143Z,3.90
2022-08-21T17:42:17.978Z,3.93
2022-08-21T17:46:25.706Z,5.23
2022-08-21T17:50:27.134Z,4.37
2022-08-21T17:54:28.477Z,4.07
2022-08-21T17:58:30.894Z,3.63
2022-08-21T18:02:33.133Z,4.27
2022-08-21T18:06:34.442Z,5.00
2022-08-21T18:10:37.871Z,5.60
2022-08-21T18:14:40.187Z,4.97
2022-08-21T18:18:42.829Z,4.10
2022-08-21T18:22:45.148Z,4.10
2022-08-21T18:26:46.803Z,3.83
2022-08-21T18:30:48.450Z,5.07
2022-08-21T18:34:50.475Z,3.60
2022-08-21T18:38:52.097Z,4.20
2022-08-21T18:42:58.598Z,4.47
2022-08-21T18:46:59.366Z,4.47
2022-08-21T18:51:02.466Z,4.73
2022-08-21T18:59:09.616Z,4.50
2022-08-21T19:03:14.667Z,4.50
2022-08-21T19:07:19.193Z,5.27
2022-08-21T19:11:23.232Z,4.80
2022-08-21T19:15:24.060Z,4.70
2022-08-21T19:19:25.317Z,4.20
2022-08-21T19:23:29.015Z,4.80
2022-08-21T19:27:30.996Z,4.43
2022-08-21T19:31:41.267Z,4.97
2022-08-21T19:35:43.303Z,5.47
2022-08-21T19:39:49.986Z,4.73
2022-08-21T19:43:53.377Z,4.67
2022-08-21T19:47:54.613Z,5.07
2022-08-21T19:51:55.744Z,8.87
2022-08-21T19:55:57.209Z,6.17
2022-08-21T19:59:58.655Z,5.40
2022-08-21T20:03:59.884Z,5.93
2022-08-21T20:08:01.691Z,6.13
2022-08-21T20:12:10.049Z,5.20
2022-08-21T20:16:13.196Z,6.67
2022-08-21T20:20:14.383Z,5.60
2022-08-21T20:24:16.079Z,5.30
2022-08-21T20:28:17.317Z,5.27
2022-08-21T20:32:18.948Z,5.33
2022-08-21T20:36:21.774Z,5.57
2022-08-21T20:40:23.366Z,4.77
2022-08-21T20:44:30.130Z,4.67
2022-08-21T20:48:49.076Z,5.27
2022-08-21T20:52:41.022Z,5.63
2022-08-21T20:56:51.692Z,5.63
2022-08-21T21:00:57.810Z,6.70
2022-08-21T21:05:17.706Z,6.37
2022-08-21T21:09:29.156Z,5.60
2022-08-21T21:13:45.371Z,4.67
2022-08-21T21:17:52.943Z,3.77
2022-08-21T21:21:58.368Z,4.30
2022-08-21T21:26:03.300Z,4.10
2022-08-21T21:30:12.364Z,4.03
2022-08-21T21:34:17.162Z,2.80
2022-08-21T21:38:27.659Z,2.50
2022-08-21T21:43:03.382Z,2.40
2022-08-21T21:47:08.450Z,2.63
2022-08-21T21:51:35.346Z,2.60
2022-08-21T21:56:07.435Z,3.33
2022-08-21T22:00:14.466Z,2.63
2022-08-21T22:04:22.520Z,2.60
2022-08-21T22:08:40.831Z,2.70
2022-08-21T22:17:29.233Z,2.60
2022-08-21T22:21:37.464Z,2.70
2022-08-21T22:25:42.634Z,3.23
2022-08-21T22:29:47.914Z,3.10
2022-08-21T22:34:06.167Z,3.50
2022-08-21T22:38:21.257Z,3.60
2022-08-21T22:42:26.849Z,2.90
2022-08-21T22:46:43.893Z,2.77
2022-08-21T22:50:45.917Z,3.27
2022-08-21T22:54:53.199Z,2.77
2022-08-21T22:58:55.602Z,2.50
2022-08-21T23:02:58.557Z,2.27
2022-08-21T23:07:02.559Z,2.93
2022-08-21T23:11:09.392Z,3.00
2022-08-21T23:15:13.019Z,2.43
2022-08-21T23:19:39.515Z,2.83
2022-08-21T23:23:44.560Z,2.90
2022-08-21T23:32:14.976Z,3.20
2022-08-21T23:36:38.994Z,3.03
2022-08-21T23:40:51.054Z,3.70
2022-08-21T23:44:59.502Z,3.40
2022-08-21T23:49:24.752Z,2.50
2022-08-21T23:53:35.452Z,2.67
2022-08-21T23:58:08.130Z,2.77
